Denali National Park, AK

11:48 AM AKDT on July 22, 2014 (GMT -0800)
RAWS MCKINLEY RIVER AK US (MMKLA2) Elev 862 ft | 63.65 °N, 151.64 °W | Change Station

Current weather conditions updated 58 minutes ago

Mostly Cloudy
Mostly Cloudy
60 °F
Feels Like 60 °F
N
5
Wind Variable Wind from WNW
Gusts 9.0 mph

Today is forecast to be Much Cooler than yesterday. Chance of showers.

Today
High -- | Low -- °F
--% Chance of Precip.
Yesterday
High -- | Low -- °F
Precip. -- in
4:45 AM 11:31 PM
Waning Crescent, 15% visible
Pressure 29.90 in
Visibility 20.0 miles
Clouds Mostly Cloudy 8000 ft
Mostly Cloudy 12000 ft
Dew Point 50 °F
Humidity 70%
Rainfall 0.00 in
Snow Depth Not available.
UV 2 out of 12
Pollen Not available.
Air Quality Not available.
Flu Activity Sporadic
METAR PAEC 221854Z 00000KT 20SM BKN080 BKN120 16/07 A2990 RMK NOSPECI

More Conditions Fewer Conditions

Pressure 29.90 in
Visibility 20.0 miles
Clouds Mostly Cloudy 8000 ft
Mostly Cloudy 12000 ft
Dew Point 50 °F
Humidity 70%
Rainfall 0.00 in
Snow Depth Not available.
UV 2 out of 12
Pollen Not available.
Air Quality Not available.
Flu Activity Sporadic
METAR PAEC 221854Z 00000KT 20SM BKN080 BKN120 16/07 A2990 RMK NOSPECI

More Conditions Fewer Conditions

10-Day Weather Forecast

Almanac

Astronomy

Jul. 22, 2014 Rise Set
Actual Time 4:45 AM AKDT 11:31 PM AKDT
Civil Twilight 2:34 AM AKDT 1:32 AM AKDT
Nautical Twilight Sun does not rise Sun does not rise
Astronomical Twilight Sun does not rise Sun does not rise
Moon 1:48 AM AKDT 8:03 PM AKDT
Length of Visible Light 22h 57m
Length of Day
18h 46m
Tomorrow will be 5m 55s shorter.
Waning Crescent, 15% of the Moon is Illuminated
Today
Waning Crescent
Jul 26
New
Aug 3
First Quarter
Aug 10
Full
Aug 17
Last Quarter

Today's Extremes

State Highs State Lows

Community

WunderPhotos

Upload Photos

1,736,341 photos uploaded!

Nearby

Snow Depth

Station Depth Elevation
Susitna Valley High 2 in 375 ft
Point Mackenzie 0 in 200 ft
Little Chena Ridge 1 in 2000 ft
Munson Ridge 1 in 3100 ft
Granite Creek 0 in 1240 ft

Earthquake Activity

City Distance Mag. Time & Date
No recent earthquake activity has been reported nearby.
Minimum magnitude displayed is 2.5.

Coastal Water Temperatures

Place Temperature
No Stations Reporting

Nearby Weather Stations

Station Location Temp. Dew Point Humidity Wind Precip. Elev Updated Type
RAWS WONDER LAKE AK, Denali National Park, AK 58 °F 46 °F 64% West  at  1 mph 0.00 in / hr 2049 ft 10:27 AM AKDT MADIS
RAWS STAMPEDE AK, Denali National Park, AK 56 °F 46 °F 68% South  at  1 mph 0.00 in / hr 1799 ft 10:34 AM AKDT MADIS
RAWS MCKINLEY RIVER AK, Denali National Park, AK 60 °F 50 °F 70% WNW  at  5 mph 0.00 in / hr 862 ft 10:50 AM AKDT MADIS
RAWS EIELSON VISTOR CENTER AK, Denali National Park, AK 53 °F 45 °F 73% South  at  3 mph 0.00 in / hr 3652 ft 10:33 AM AKDT MADIS

Show More Stations Show Fewer Stations